PWSweather.com
Personal Weather Stations
Station Observations
IROGLAN40
AalgaardNO 4330

AalgaardNO 4330

Lat: 58.773, Lon: 5.846

Elevation: 326

Station Type: Davis Vanatge Pro2

Latest ConditionsUpdated 4:50:02 PM GMT+01:01 Saturday, Sep 22, 2018
Currently Today's Max Today's Min Today's Average
Temperature 52.1°F11.2°C 52.5°F11.4°C 46.9°F8.3°C 49.7°F9.8°C
Dew Point 47.1°F8.4°C 48.7°F9.3°C 41.3°F5.2°C 44.4°F6.9°C
Winds 10.4 mph NW16.7 kmh NW 15.0 mph -24.1 kmh - - 7.6 mph 12.2 kmh
Wind Gusts 20.7 mph33.3 kmh 31.1 mph50.1 kmh - -
Humidity 83% 90% 73% 82%
Pressure 29.59 in1002.0 mb 29.59 in1002.0 mb 29.32 in992.9 mb -
Precipitation - 0.24 in6.1 mm - -
Hour Temp Dew Point Humidity Winds Wind Gusts Pressure Precip Precip Rate Daily Precip Total
04:50 PM 52.1°F11.2°C 47.1°F8.4°C 83% 10.4 mph NW16.7 kmh NW 20.7 mph33.3 kmh 29.59 in1002.0 mb - 0.00 in0.0 mm 0.24 in6.1 mm
04:40 PM 51.4°F10.8°C 46.7°F8.2°C 84% 8.1 mph NW13.0 kmh NW 12.7 mph20.4 kmh 29.58 in1001.7 mb - 0.00 in0.0 mm 0.24 in6.1 mm
04:30 PM 51.3°F10.7°C 46.9°F8.3°C 85% 8.1 mph WNW13.0 kmh WNW 12.7 mph20.4 kmh 29.58 in1001.7 mb - 0.00 in0.0 mm 0.24 in6.1 mm
04:20 PM 51.0°F10.6°C 46.9°F8.3°C 86% 6.9 mph NW11.1 kmh NW 13.8 mph22.2 kmh 29.58 in1001.7 mb - 0.00 in0.0 mm 0.24 in6.1 mm
04:10 PM 51.4°F10.8°C 47.7°F8.7°C 87% 8.1 mph NW13.0 kmh NW 12.7 mph20.4 kmh 29.58 in1001.7 mb - 0.05 in1.3 mm 0.24 in6.1 mm
04:00 PM 52.2°F11.2°C 47.2°F8.4°C 83% 8.1 mph NW13.0 kmh NW 17.3 mph27.8 kmh 29.57 in1001.4 mb - 0.02 in0.5 mm 0.22 in5.6 mm
03:50 PM 52.2°F11.2°C 47.2°F8.4°C 83% 5.8 mph WNW9.3 kmh WNW 6.9 mph11.1 kmh 29.57 in1001.4 mb - 0.00 in0.0 mm 0.20 in5.1 mm
03:40 PM 52.4°F11.3°C 48.0°F8.9°C 85% 6.9 mph WNW11.1 kmh WNW 10.4 mph16.7 kmh 29.56 in1001.0 mb - 0.00 in0.0 mm 0.20 in5.1 mm
03:30 PM 52.2°F11.2°C 47.8°F8.8°C 85% 8.1 mph NW13.0 kmh NW 9.2 mph14.8 kmh 29.56 in1001.0 mb - 0.00 in0.0 mm 0.20 in5.1 mm
03:20 PM 51.8°F11.0°C 47.1°F8.4°C 84% 5.8 mph NW9.3 kmh NW 10.4 mph16.7 kmh 29.55 in1000.7 mb - 0.00 in0.0 mm 0.20 in5.1 mm
03:10 PM 52.1°F11.2°C 47.7°F8.7°C 85% 6.9 mph WNW11.1 kmh WNW 6.9 mph11.1 kmh 29.55 in1000.7 mb - 0.00 in0.0 mm 0.20 in5.1 mm
03:00 PM 51.8°F11.0°C 48.0°F8.9°C 87% 8.1 mph WNW13.0 kmh WNW 10.4 mph16.7 kmh 29.54 in1000.3 mb - 0.00 in0.0 mm 0.20 in5.1 mm
02:50 PM 51.2°F10.7°C 47.8°F8.8°C 88% 9.2 mph WNW14.8 kmh WNW 16.1 mph25.9 kmh 29.54 in1000.3 mb - 0.00 in0.0 mm 0.20 in5.1 mm
02:40 PM 51.3°F10.7°C 48.2°F9.0°C 89% 10.4 mph WNW16.7 kmh WNW 11.5 mph18.5 kmh 29.53 in1000.0 mb - 0.00 in0.0 mm 0.20 in5.1 mm
02:30 PM 50.7°F10.4°C 47.6°F8.7°C 89% 5.8 mph WNW9.3 kmh WNW 8.1 mph13.0 kmh 29.53 in1000.0 mb - 0.02 in0.5 mm 0.20 in5.1 mm
02:20 PM 51.4°F10.8°C 48.3°F9.1°C 89% 5.8 mph NW9.3 kmh NW 10.4 mph16.7 kmh 29.53 in1000.0 mb - 0.01 in0.3 mm 0.19 in4.8 mm
02:10 PM 51.0°F10.6°C 47.6°F8.7°C 88% 5.8 mph WNW9.3 kmh WNW 8.1 mph13.0 kmh 29.53 in1000.0 mb - 0.00 in0.0 mm 0.18 in4.6 mm
02:00 PM 50.6°F10.3°C 47.5°F8.6°C 89% 5.8 mph WNW9.3 kmh WNW 10.4 mph16.7 kmh 29.53 in1000.0 mb - 0.00 in0.0 mm 0.18 in4.6 mm
01:50 PM 50.7°F10.4°C 47.3°F8.5°C 88% 6.9 mph NW11.1 kmh NW 11.5 mph18.5 kmh 29.52 in999.7 mb - 0.02 in0.5 mm 0.18 in4.6 mm
01:40 PM 51.3°F10.7°C 47.9°F8.8°C 88% 6.9 mph WNW11.1 kmh WNW 10.4 mph16.7 kmh 29.52 in999.7 mb - 0.01 in0.3 mm 0.17 in4.3 mm
01:30 PM 51.4°F10.8°C 48.3°F9.1°C 89% 10.4 mph WNW16.7 kmh WNW 13.8 mph22.2 kmh 29.51 in999.3 mb - 0.00 in0.0 mm 0.17 in4.3 mm
01:20 PM 51.5°F10.8°C 48.7°F9.3°C 90% 5.8 mph NW9.3 kmh NW 10.4 mph16.7 kmh 29.51 in999.3 mb - 0.00 in0.0 mm 0.17 in4.3 mm
01:10 PM 50.2°F10.1°C 47.0°F8.3°C 89% 2.3 mph WNW3.7 kmh WNW 5.8 mph9.3 kmh 29.51 in999.3 mb - 0.00 in0.0 mm 0.17 in4.3 mm
01:00 PM 48.6°F9.2°C 44.9°F7.2°C 87% 4.6 mph NW7.4 kmh NW 6.9 mph11.1 kmh 29.52 in999.7 mb - 0.03 in0.8 mm 0.17 in4.3 mm
12:50 PM 50.2°F10.1°C 45.2°F7.3°C 83% 6.9 mph NW11.1 kmh NW 10.4 mph16.7 kmh 29.52 in999.7 mb - 0.08 in2.0 mm 0.14 in3.6 mm
12:40 PM 51.5°F10.8°C 47.1°F8.4°C 85% 6.9 mph WNW11.1 kmh WNW 10.4 mph16.7 kmh 29.51 in999.3 mb - 0.00 in0.0 mm 0.06 in1.5 mm
12:30 PM 51.1°F10.6°C 47.0°F8.3°C 86% 5.8 mph W9.3 kmh W 6.9 mph11.1 kmh 29.51 in999.3 mb - 0.00 in0.0 mm 0.06 in1.5 mm
12:20 PM 49.4°F9.7°C 44.7°F7.1°C 84% 4.6 mph NW7.4 kmh NW 6.9 mph11.1 kmh 29.52 in999.7 mb - 0.00 in0.0 mm 0.06 in1.5 mm
12:10 PM 49.0°F9.4°C 43.4°F6.3°C 81% 5.8 mph NW9.3 kmh NW 6.9 mph11.1 kmh 29.52 in999.7 mb - 0.00 in0.0 mm 0.06 in1.5 mm
12:00 PM 51.6°F10.9°C 45.0°F7.2°C 78% 10.4 mph WNW16.7 kmh WNW 11.5 mph18.5 kmh 29.53 in1000.0 mb - 0.01 in0.3 mm 0.06 in1.5 mm
11:50 AM 52.5°F11.4°C 46.2°F7.9°C 79% 5.8 mph NW9.3 kmh NW 11.5 mph18.5 kmh 29.52 in999.7 mb - 0.00 in0.0 mm 0.06 in1.5 mm
11:40 AM 51.8°F11.0°C 45.5°F7.5°C 79% 5.8 mph NW9.3 kmh NW 8.1 mph13.0 kmh 29.52 in999.7 mb - 0.00 in0.0 mm 0.06 in1.5 mm
11:30 AM 50.4°F10.2°C 45.2°F7.3°C 82% 6.9 mph NW11.1 kmh NW 11.5 mph18.5 kmh 29.52 in999.7 mb - 0.00 in0.0 mm 0.06 in1.5 mm
11:20 AM 50.1°F10.1°C 44.2°F6.8°C 80% 3.5 mph W5.6 kmh W 6.9 mph11.1 kmh 29.52 in999.7 mb - 0.01 in0.3 mm 0.06 in1.5 mm
11:10 AM 50.7°F10.4°C 44.1°F6.7°C 78% 5.8 mph NW9.3 kmh NW 6.9 mph11.1 kmh 29.52 in999.7 mb - 0.00 in0.0 mm 0.05 in1.3 mm
11:00 AM 51.2°F10.7°C 44.6°F7.0°C 78% 5.8 mph W9.3 kmh W 6.9 mph11.1 kmh 29.53 in1000.0 mb - 0.00 in0.0 mm 0.05 in1.3 mm
10:50 AM 49.9°F9.9°C 44.0°F6.7°C 80% 5.8 mph W9.3 kmh W 6.9 mph11.1 kmh 29.52 in999.7 mb - 0.00 in0.0 mm 0.05 in1.3 mm
10:40 AM 48.8°F9.3°C 42.6°F5.9°C 79% 8.1 mph NW13.0 kmh NW 10.4 mph16.7 kmh 29.52 in999.7 mb - 0.00 in0.0 mm 0.05 in1.3 mm
10:30 AM 49.5°F9.7°C 44.6°F7.0°C 83% 5.8 mph WNW9.3 kmh WNW 8.1 mph13.0 kmh 29.52 in999.7 mb - 0.00 in0.0 mm 0.05 in1.3 mm
10:20 AM 49.0°F9.4°C 44.6°F7.0°C 85% 4.6 mph NW7.4 kmh NW 8.1 mph13.0 kmh 29.52 in999.7 mb - 0.00 in0.0 mm 0.05 in1.3 mm
10:10 AM 47.5°F8.6°C 43.2°F6.2°C 85% 2.3 mph NW3.7 kmh NW 3.5 mph5.6 kmh 29.52 in999.7 mb - 0.00 in0.0 mm 0.05 in1.3 mm
10:00 AM 46.9°F8.3°C 42.0°F5.6°C 83% 4.6 mph NW7.4 kmh NW 5.8 mph9.3 kmh 29.52 in999.7 mb - 0.01 in0.3 mm 0.05 in1.3 mm
09:50 AM 49.4°F9.7°C 43.8°F6.6°C 81% 11.5 mph NW18.5 kmh NW 18.4 mph29.6 kmh 29.52 in999.7 mb - 0.01 in0.3 mm 0.05 in1.3 mm
09:40 AM 48.3°F9.1°C 44.6°F7.0°C 87% 4.6 mph W7.4 kmh W 9.2 mph14.8 kmh 29.51 in999.3 mb - 0.00 in0.0 mm 0.04 in1.0 mm
09:30 AM 47.7°F8.7°C 43.1°F6.2°C 84% 4.6 mph WNW7.4 kmh WNW 8.1 mph13.0 kmh 29.51 in999.3 mb - 0.01 in0.3 mm 0.04 in1.0 mm
09:20 AM 48.1°F8.9°C 43.2°F6.2°C 83% 3.5 mph NW5.6 kmh NW 4.6 mph7.4 kmh 29.51 in999.3 mb - 0.00 in0.0 mm 0.03 in0.8 mm
09:10 AM 48.7°F9.3°C 44.1°F6.7°C 84% 4.6 mph WNW7.4 kmh WNW 5.8 mph9.3 kmh 29.51 in999.3 mb - 0.00 in0.0 mm 0.03 in0.8 mm
09:00 AM 48.2°F9.0°C 43.9°F6.6°C 85% 4.6 mph NW7.4 kmh NW 8.1 mph13.0 kmh 29.50 in999.0 mb - 0.00 in0.0 mm 0.03 in0.8 mm
08:50 AM 47.7°F8.7°C 43.4°F6.3°C 85% 2.3 mph WNW3.7 kmh WNW 3.5 mph5.6 kmh 29.50 in999.0 mb - 0.00 in0.0 mm 0.03 in0.8 mm
08:40 AM 47.6°F8.7°C 43.3°F6.3°C 85% 4.6 mph WNW7.4 kmh WNW 8.1 mph13.0 kmh 29.50 in999.0 mb - 0.00 in0.0 mm 0.03 in0.8 mm
08:30 AM 47.4°F8.6°C 43.1°F6.2°C 85% 5.8 mph WNW9.3 kmh WNW 6.9 mph11.1 kmh 29.50 in999.0 mb - 0.00 in0.0 mm 0.03 in0.8 mm
08:20 AM 48.3°F9.1°C 43.4°F6.3°C 83% 9.2 mph WNW14.8 kmh WNW 10.4 mph16.7 kmh 29.50 in999.0 mb - 0.00 in0.0 mm 0.03 in0.8 mm
08:10 AM 48.9°F9.4°C 43.3°F6.3°C 81% 5.8 mph WNW9.3 kmh WNW 11.5 mph18.5 kmh 29.50 in999.0 mb - 0.00 in0.0 mm 0.03 in0.8 mm
08:00 AM 48.7°F9.3°C 43.5°F6.4°C 82% 8.1 mph WNW13.0 kmh WNW 11.5 mph18.5 kmh 29.49 in998.6 mb - 0.00 in0.0 mm 0.03 in0.8 mm
07:50 AM 48.4°F9.1°C 43.5°F6.4°C 83% 6.9 mph WNW11.1 kmh WNW 10.4 mph16.7 kmh 29.49 in998.6 mb - 0.00 in0.0 mm 0.03 in0.8 mm
07:40 AM 47.9°F8.8°C 43.3°F6.3°C 84% 4.6 mph WNW7.4 kmh WNW 8.1 mph13.0 kmh 29.49 in998.6 mb - 0.00 in0.0 mm 0.03 in0.8 mm
07:30 AM 47.2°F8.4°C 42.6°F5.9°C 84% 3.5 mph WNW5.6 kmh WNW 4.6 mph7.4 kmh 29.49 in998.6 mb - 0.00 in0.0 mm 0.03 in0.8 mm
07:20 AM 46.9°F8.3°C 42.6°F5.9°C 85% 4.6 mph WNW7.4 kmh WNW 6.9 mph11.1 kmh 29.50 in999.0 mb - 0.00 in0.0 mm 0.03 in0.8 mm
07:10 AM 47.3°F8.5°C 43.3°F6.3°C 86% 3.5 mph WNW5.6 kmh WNW 8.1 mph13.0 kmh 29.49 in998.6 mb - 0.00 in0.0 mm 0.03 in0.8 mm
07:00 AM 47.9°F8.8°C 43.6°F6.4°C 85% 9.2 mph WNW14.8 kmh WNW 15.0 mph24.1 kmh 29.49 in998.6 mb - 0.00 in0.0 mm 0.03 in0.8 mm
06:50 AM 48.6°F9.2°C 44.0°F6.7°C 84% 5.8 mph WNW9.3 kmh WNW 8.1 mph13.0 kmh 29.48 in998.3 mb - 0.00 in0.0 mm 0.03 in0.8 mm
06:40 AM 48.7°F9.3°C 43.5°F6.4°C 82% 4.6 mph W7.4 kmh W 11.5 mph18.5 kmh 29.48 in998.3 mb - 0.00 in0.0 mm 0.03 in0.8 mm
06:30 AM 48.4°F9.1°C 43.5°F6.4°C 83% 4.6 mph W7.4 kmh W 6.9 mph11.1 kmh 29.48 in998.3 mb - 0.01 in0.3 mm 0.03 in0.8 mm
06:20 AM 48.1°F8.9°C 43.2°F6.2°C 83% 6.9 mph WNW11.1 kmh WNW 11.5 mph18.5 kmh 29.48 in998.3 mb - 0.00 in0.0 mm 0.02 in0.5 mm
06:10 AM 48.2°F9.0°C 43.0°F6.1°C 82% 5.8 mph NW9.3 kmh NW 6.9 mph11.1 kmh 29.48 in998.3 mb - 0.00 in0.0 mm 0.02 in0.5 mm
06:00 AM 49.0°F9.4°C 43.4°F6.3°C 81% 5.8 mph NW9.3 kmh NW 11.5 mph18.5 kmh 29.48 in998.3 mb - 0.00 in0.0 mm 0.02 in0.5 mm
05:50 AM 49.3°F9.6°C 43.8°F6.6°C 81% 6.9 mph NW11.1 kmh NW 13.8 mph22.2 kmh 29.47 in998.0 mb - 0.00 in0.0 mm 0.02 in0.5 mm
05:40 AM 49.3°F9.6°C 43.4°F6.3°C 80% 6.9 mph W11.1 kmh W 9.2 mph14.8 kmh 29.47 in998.0 mb - 0.00 in0.0 mm 0.02 in0.5 mm
05:30 AM 49.2°F9.6°C 43.3°F6.3°C 80% 8.1 mph WNW13.0 kmh WNW 11.5 mph18.5 kmh 29.47 in998.0 mb - 0.00 in0.0 mm 0.02 in0.5 mm
05:20 AM 49.1°F9.5°C 44.1°F6.7°C 83% 5.8 mph NW9.3 kmh NW 11.5 mph18.5 kmh 29.46 in997.6 mb - 0.00 in0.0 mm 0.02 in0.5 mm
05:10 AM 49.1°F9.5°C 44.5°F6.9°C 84% 5.8 mph WNW9.3 kmh WNW 9.2 mph14.8 kmh 29.46 in997.6 mb - 0.00 in0.0 mm 0.02 in0.5 mm
05:00 AM 49.0°F9.4°C 44.4°F6.9°C 84% 5.8 mph NW9.3 kmh NW 8.1 mph13.0 kmh 29.46 in997.6 mb - 0.00 in0.0 mm 0.02 in0.5 mm
04:50 AM 49.3°F9.6°C 44.4°F6.9°C 83% 4.6 mph NW7.4 kmh NW 11.5 mph18.5 kmh 29.46 in997.6 mb - 0.01 in0.3 mm 0.02 in0.5 mm
04:40 AM 49.4°F9.7°C 44.1°F6.7°C 82% 6.9 mph WNW11.1 kmh WNW 10.4 mph16.7 kmh 29.45 in997.3 mb - 0.00 in0.0 mm 0.02 in0.5 mm
04:30 AM 49.3°F9.6°C 44.1°F6.7°C 82% 6.9 mph WNW11.1 kmh WNW 10.4 mph16.7 kmh 29.45 in997.3 mb - 0.00 in0.0 mm 0.02 in0.5 mm
04:20 AM 49.4°F9.7°C 44.1°F6.7°C 82% 6.9 mph NW11.1 kmh NW 10.4 mph16.7 kmh 29.45 in997.3 mb - 0.00 in0.0 mm 0.02 in0.5 mm
04:10 AM 49.0°F9.4°C 44.1°F6.7°C 83% 13.8 mph NW22.2 kmh NW 20.7 mph33.3 kmh 29.44 in997.0 mb - 0.00 in0.0 mm 0.02 in0.5 mm
04:00 AM 49.4°F9.7°C 43.8°F6.6°C 81% 8.1 mph NW13.0 kmh NW 15.0 mph24.1 kmh 29.44 in997.0 mb - 0.00 in0.0 mm 0.02 in0.5 mm
03:50 AM 50.2°F10.1°C 44.3°F6.8°C 80% 9.2 mph WNW14.8 kmh WNW 17.3 mph27.8 kmh 29.44 in997.0 mb - 0.00 in0.0 mm 0.02 in0.5 mm
03:40 AM 49.9°F9.9°C 43.3°F6.3°C 78% 9.2 mph WNW14.8 kmh WNW 9.2 mph14.8 kmh 29.44 in997.0 mb - 0.00 in0.0 mm 0.02 in0.5 mm
03:30 AM 50.4°F10.2°C 43.5°F6.4°C 77% 8.1 mph WNW13.0 kmh WNW 11.5 mph18.5 kmh 29.44 in997.0 mb - 0.00 in0.0 mm 0.02 in0.5 mm
03:20 AM 50.1°F10.1°C 42.5°F5.8°C 75% 9.2 mph WNW14.8 kmh WNW 11.5 mph18.5 kmh 29.44 in997.0 mb - 0.00 in0.0 mm 0.02 in0.5 mm
03:10 AM 50.3°F10.2°C 42.7°F5.9°C 75% 9.2 mph NW14.8 kmh NW 12.7 mph20.4 kmh 29.44 in997.0 mb - 0.00 in0.0 mm 0.02 in0.5 mm
03:00 AM 50.1°F10.1°C 42.5°F5.8°C 75% 12.7 mph NW20.4 kmh NW 19.6 mph31.5 kmh 29.44 in997.0 mb - 0.00 in0.0 mm 0.02 in0.5 mm
02:50 AM 50.0°F10.0°C 42.4°F5.8°C 75% 9.2 mph NW14.8 kmh NW 12.7 mph20.4 kmh 29.43 in996.6 mb - 0.00 in0.0 mm 0.02 in0.5 mm
02:40 AM 49.8°F9.9°C 42.2°F5.7°C 75% 8.1 mph NW13.0 kmh NW 11.5 mph18.5 kmh 29.42 in996.3 mb - 0.00 in0.0 mm 0.02 in0.5 mm
02:30 AM 49.8°F9.9°C 41.5°F5.3°C 73% 10.4 mph NW16.7 kmh NW 16.1 mph25.9 kmh 29.42 in996.3 mb - 0.00 in0.0 mm 0.02 in0.5 mm
02:20 AM 49.8°F9.9°C 41.5°F5.3°C 73% 12.7 mph NW20.4 kmh NW 19.6 mph31.5 kmh 29.41 in995.9 mb - 0.00 in0.0 mm 0.02 in0.5 mm
02:10 AM 49.7°F9.8°C 41.4°F5.2°C 73% 10.4 mph NW16.7 kmh NW 13.8 mph22.2 kmh 29.41 in995.9 mb - 0.00 in0.0 mm 0.02 in0.5 mm
02:00 AM 49.6°F9.8°C 41.3°F5.2°C 73% 11.5 mph NW18.5 kmh NW 19.6 mph31.5 kmh 29.40 in995.6 mb - 0.00 in0.0 mm 0.02 in0.5 mm
01:50 AM 49.7°F9.8°C 41.4°F5.2°C 73% 11.5 mph NW18.5 kmh NW 17.3 mph27.8 kmh 29.40 in995.6 mb - 0.00 in0.0 mm 0.02 in0.5 mm
01:40 AM 49.6°F9.8°C 42.3°F5.7°C 76% 13.8 mph NW22.2 kmh NW 17.3 mph27.8 kmh 29.39 in995.3 mb - 0.00 in0.0 mm 0.02 in0.5 mm
01:30 AM 49.5°F9.7°C 42.2°F5.7°C 76% 11.5 mph NW18.5 kmh NW 21.9 mph35.2 kmh 29.38 in994.9 mb - 0.00 in0.0 mm 0.02 in0.5 mm
01:20 AM 49.8°F9.9°C 43.2°F6.2°C 78% 12.7 mph WNW20.4 kmh WNW 17.3 mph27.8 kmh 29.37 in994.6 mb - 0.00 in0.0 mm 0.02 in0.5 mm
01:10 AM 49.9°F9.9°C 43.3°F6.3°C 78% 13.8 mph WNW22.2 kmh WNW 19.6 mph31.5 kmh 29.37 in994.6 mb - 0.00 in0.0 mm 0.02 in0.5 mm
01:00 AM 49.6°F9.8°C 41.7°F5.4°C 74% 15.0 mph NW24.1 kmh NW 20.7 mph33.3 kmh 29.36 in994.2 mb - 0.00 in0.0 mm 0.02 in0.5 mm
12:50 AM 49.4°F9.7°C 42.5°F5.8°C 77% 13.8 mph NW22.2 kmh NW 24.2 mph38.9 kmh 29.35 in993.9 mb - 0.00 in0.0 mm 0.02 in0.5 mm
12:40 AM 49.6°F9.8°C 43.0°F6.1°C 78% 13.8 mph NW22.2 kmh NW 31.1 mph50.1 kmh 29.35 in993.9 mb - 0.00 in0.0 mm 0.02 in0.5 mm
12:30 AM 49.7°F9.8°C 42.1°F5.6°C 75% 15.0 mph NW24.1 kmh NW 18.4 mph29.6 kmh 29.34 in993.6 mb - 0.00 in0.0 mm 0.02 in0.5 mm
12:20 AM 49.6°F9.8°C 42.7°F5.9°C 77% 15.0 mph NW24.1 kmh NW 26.5 mph42.6 kmh 29.33 in993.2 mb - 0.00 in0.0 mm 0.02 in0.5 mm
12:10 AM 49.4°F9.7°C 43.5°F6.4°C 80% 13.8 mph NW22.2 kmh NW 25.3 mph40.7 kmh 29.32 in992.9 mb - 0.00 in0.0 mm 0.02 in0.5 mm
12:00 AM 49.0°F9.4°C 43.4°F6.3°C 81% 11.5 mph NW18.5 kmh NW 18.4 mph29.6 kmh 29.32 in992.9 mb - 0.00 in0.0 mm 0.02 in0.5 mm